Portada
METAR-TAF:

METAR-TAF

Aeroports :

Clinton, Carolina del Nord, Estats Units d'Amèrica

latitud: 34-58-32N, longitud: 078-21-53W, altitud: 45 m

Observació

L'informe es va fer fa 20 minuts, a les 08:35 UTC
Vent calma
Temperatura 24°C
Humitat 100%
Pressió 1020 hPa
Visibilitat: 16.1 km
Cel clar

METAR: KCTZ 090835Z AUTO 00000KT 10SM CLR 24/24 A3013 RMK AO2 T02350235

Hora: 04:55 (08:55 UTC)


TAF: manca

Observacions i pronòstics meteorològics de més de 4000 aeroports (METAR i TAF).

Les estacions disponibles són els punts grocs i vermells al mapa.

Posi el ratolí al punt desitjat per veure el nom de l'estació.

Feu clic per veure les observacions i els pronòstics meteorològics.

Per canviar el mapa: feu clic els botons verds amb una creu de color negre per apropar; al botó verd amb un guió per allunyar la imatge; o en les fletxes verdes per a mapes adjacents.


METAR-TAF: